sensor_id;sensor_type;location;lat;lon;timestamp;P1;durP1;ratioP1;P2;durP2;ratioP2
12776;SDS011;6452;41.572;23.732;2023-10-19T00:00:54;2.42;;;2.22;;
12776;SDS011;6452;41.572;23.732;2023-10-19T00:03:25;2.50;;;2.30;;
12776;SDS011;6452;41.572;23.732;2023-10-19T00:05:52;2.38;;;2.17;;
12776;SDS011;6452;41.572;23.732;2023-10-19T00:08:20;2.33;;;2.13;;
12776;SDS011;6452;41.572;23.732;2023-10-19T00:10:49;2.08;;;1.98;;
12776;SDS011;6452;41.572;23.732;2023-10-19T00:13:30;2.22;;;2.03;;
12776;SDS011;6452;41.572;23.732;2023-10-19T00:15:57;4.03;;;2.83;;
12776;SDS011;6452;41.572;23.732;2023-10-19T00:18:24;2.95;;;2.40;;
12776;SDS011;6452;41.572;23.732;2023-10-19T00:20:51;3.75;;;3.33;;
12776;SDS011;6452;41.572;23.732;2023-10-19T00:23:19;3.85;;;2.63;;
12776;SDS011;6452;41.572;23.732;2023-10-19T00:25:57;3.17;;;2.88;;
12776;SDS011;6452;41.572;23.732;2023-10-19T00:28:34;3.10;;;2.90;;
12776;SDS011;6452;41.572;23.732;2023-10-19T00:31:01;4.20;;;3.00;;
12776;SDS011;6452;41.572;23.732;2023-10-19T00:33:34;3.40;;;3.20;;
12776;SDS011;6452;41.572;23.732;2023-10-19T00:36:09;3.33;;;3.03;;
12776;SDS011;6452;41.572;23.732;2023-10-19T00:38:39;4.80;;;3.00;;
12776;SDS011;6452;41.572;23.732;2023-10-19T00:41:21;3.88;;;3.58;;
12776;SDS011;6452;41.572;23.732;2023-10-19T00:44:14;3.08;;;2.88;;
12776;SDS011;6452;41.572;23.732;2023-10-19T00:46:43;5.68;;;2.88;;
12776;SDS011;6452;41.572;23.732;2023-10-19T00:49:15;2.92;;;2.72;;
12776;SDS011;6452;41.572;23.732;2023-10-19T00:51:45;3.20;;;2.95;;
12776;SDS011;6452;41.572;23.732;2023-10-19T00:57:11;3.00;;;2.80;;
12776;SDS011;6452;41.572;23.732;2023-10-19T00:59:39;6.80;;;3.00;;
12776;SDS011;6452;41.572;23.732;2023-10-19T01:02:16;3.15;;;2.95;;
12776;SDS011;6452;41.572;23.732;2023-10-19T01:04:47;3.53;;;2.83;;
12776;SDS011;6452;41.572;23.732;2023-10-19T01:07:33;4.97;;;3.00;;
12776;SDS011;6452;41.572;23.732;2023-10-19T01:10:10;3.08;;;2.90;;
12776;SDS011;6452;41.572;23.732;2023-10-19T01:12:46;2.60;;;2.40;;
12776;SDS011;6452;41.572;23.732;2023-10-19T01:15:14;3.08;;;2.88;;
12776;SDS011;6452;41.572;23.732;2023-10-19T01:17:45;3.08;;;2.88;;
12776;SDS011;6452;41.572;23.732;2023-10-19T01:20:21;4.45;;;2.95;;
12776;SDS011;6452;41.572;23.732;2023-10-19T01:22:59;3.38;;;3.17;;
12776;SDS011;6452;41.572;23.732;2023-10-19T01:28:36;3.47;;;3.17;;
12776;SDS011;6452;41.572;23.732;2023-10-19T01:31:06;5.15;;;3.17;;
12776;SDS011;6452;41.572;23.732;2023-10-19T01:33:33;5.13;;;3.05;;
12776;SDS011;6452;41.572;23.732;2023-10-19T01:36:00;3.72;;;3.42;;
12776;SDS011;6452;41.572;23.732;2023-10-19T01:38:44;3.47;;;3.28;;
12776;SDS011;6452;41.572;23.732;2023-10-19T01:41:13;4.32;;;3.30;;
12776;SDS011;6452;41.572;23.732;2023-10-19T01:43:49;3.40;;;3.08;;
12776;SDS011;6452;41.572;23.732;2023-10-19T01:46:17;2.95;;;2.78;;
12776;SDS011;6452;41.572;23.732;2023-10-19T01:48:53;3.40;;;3.20;;
12776;SDS011;6452;41.572;23.732;2023-10-19T01:51:24;3.22;;;2.97;;
12776;SDS011;6452;41.572;23.732;2023-10-19T01:53:52;3.20;;;3.00;;
12776;SDS011;6452;41.572;23.732;2023-10-19T01:56:20;3.35;;;2.85;;
12776;SDS011;6452;41.572;23.732;2023-10-19T01:58:48;3.08;;;2.88;;
12776;SDS011;6452;41.572;23.732;2023-10-19T02:01:22;5.53;;;3.20;;
12776;SDS011;6452;41.572;23.732;2023-10-19T02:03:51;5.78;;;2.97;;
12776;SDS011;6452;41.572;23.732;2023-10-19T02:06:24;3.58;;;3.30;;
12776;SDS011;6452;41.572;23.732;2023-10-19T02:09:07;2.95;;;2.75;;
12776;SDS011;6452;41.572;23.732;2023-10-19T02:11:43;3.03;;;2.83;;
12776;SDS011;6452;41.572;23.732;2023-10-19T02:14:30;3.15;;;2.85;;
12776;SDS011;6452;41.572;23.732;2023-10-19T02:16:57;2.83;;;2.63;;
12776;SDS011;6452;41.572;23.732;2023-10-19T02:19:25;3.72;;;2.70;;
12776;SDS011;6452;41.572;23.732;2023-10-19T02:21:54;3.20;;;3.00;;
12776;SDS011;6452;41.572;23.732;2023-10-19T02:24:21;3.22;;;2.95;;
12776;SDS011;6452;41.572;23.732;2023-10-19T02:26:51;3.15;;;2.60;;
12776;SDS011;6452;41.572;23.732;2023-10-19T02:29:19;2.70;;;2.50;;
12776;SDS011;6452;41.572;23.732;2023-10-19T02:31:47;2.78;;;2.58;;
12776;SDS011;6452;41.572;23.732;2023-10-19T02:34:14;2.53;;;2.33;;
12776;SDS011;6452;41.572;23.732;2023-10-19T02:36:43;2.58;;;2.38;;
12776;SDS011;6452;41.572;23.732;2023-10-19T02:39:11;3.38;;;2.30;;
12776;SDS011;6452;41.572;23.732;2023-10-19T02:41:40;2.95;;;2.63;;
12776;SDS011;6452;41.572;23.732;2023-10-19T02:44:10;2.65;;;2.50;;
12776;SDS011;6452;41.572;23.732;2023-10-19T02:46:47;2.75;;;2.55;;
12776;SDS011;6452;41.572;23.732;2023-10-19T02:49:24;2.47;;;2.38;;
12776;SDS011;6452;41.572;23.732;2023-10-19T02:51:51;2.55;;;2.45;;
12776;SDS011;6452;41.572;23.732;2023-10-19T02:54:22;3.53;;;2.65;;
12776;SDS011;6452;41.572;23.732;2023-10-19T02:56:50;2.70;;;2.50;;
12776;SDS011;6452;41.572;23.732;2023-10-19T02:59:19;3.65;;;3.22;;
12776;SDS011;6452;41.572;23.732;2023-10-19T03:01:53;2.97;;;2.80;;
12776;SDS011;6452;41.572;23.732;2023-10-19T03:04:26;3.47;;;2.67;;
12776;SDS011;6452;41.572;23.732;2023-10-19T03:06:56;7.88;;;5.15;;
12776;SDS011;6452;41.572;23.732;2023-10-19T03:09:23;5.15;;;3.40;;
12776;SDS011;6452;41.572;23.732;2023-10-19T03:11:51;4.68;;;3.83;;
12776;SDS011;6452;41.572;23.732;2023-10-19T03:14:18;3.78;;;3.42;;
12776;SDS011;6452;41.572;23.732;2023-10-19T03:16:45;3.33;;;3.13;;
12776;SDS011;6452;41.572;23.732;2023-10-19T03:19:11;3.30;;;3.10;;
12776;SDS011;6452;41.572;23.732;2023-10-19T03:21:40;6.80;;;4.75;;
12776;SDS011;6452;41.572;23.732;2023-10-19T03:24:13;6.47;;;4.22;;
12776;SDS011;6452;41.572;23.732;2023-10-19T03:27:04;9.15;;;4.90;;
12776;SDS011;6452;41.572;23.732;2023-10-19T03:29:38;4.47;;;3.95;;
12776;SDS011;6452;41.572;23.732;2023-10-19T03:32:05;4.72;;;4.22;;
12776;SDS011;6452;41.572;23.732;2023-10-19T03:34:34;5.70;;;4.40;;
12776;SDS011;6452;41.572;23.732;2023-10-19T03:37:01;6.55;;;5.90;;
12776;SDS011;6452;41.572;23.732;2023-10-19T03:39:50;6.05;;;5.50;;
12776;SDS011;6452;41.572;23.732;2023-10-19T03:42:17;5.68;;;5.15;;
12776;SDS011;6452;41.572;23.732;2023-10-19T03:44:46;5.90;;;5.38;;
12776;SDS011;6452;41.572;23.732;2023-10-19T03:47:12;5.68;;;4.95;;
12776;SDS011;6452;41.572;23.732;2023-10-19T03:49:46;5.60;;;5.10;;
12776;SDS011;6452;41.572;23.732;2023-10-19T03:52:13;5.15;;;4.75;;
12776;SDS011;6452;41.572;23.732;2023-10-19T03:54:39;5.63;;;5.07;;
12776;SDS011;6452;41.572;23.732;2023-10-19T03:57:06;5.30;;;4.80;;
12776;SDS011;6452;41.572;23.732;2023-10-19T03:59:55;4.97;;;4.43;;
12776;SDS011;6452;41.572;23.732;2023-10-19T04:02:22;4.13;;;3.83;;
12776;SDS011;6452;41.572;23.732;2023-10-19T04:04:49;5.70;;;3.88;;
12776;SDS011;6452;41.572;23.732;2023-10-19T04:07:17;4.40;;;4.03;;
12776;SDS011;6452;41.572;23.732;2023-10-19T04:09:50;4.38;;;4.00;;
12776;SDS011;6452;41.572;23.732;2023-10-19T04:12:33;6.35;;;3.58;;
12776;SDS011;6452;41.572;23.732;2023-10-19T04:15:07;3.92;;;3.63;;
12776;SDS011;6452;41.572;23.732;2023-10-19T04:17:39;5.07;;;4.05;;
12776;SDS011;6452;41.572;23.732;2023-10-19T04:20:08;7.22;;;6.57;;
12776;SDS011;6452;41.572;23.732;2023-10-19T04:22:48;15.63;;;14.13;;
12776;SDS011;6452;41.572;23.732;2023-10-19T04:25:16;66.35;;;55.10;;
12776;SDS011;6452;41.572;23.732;2023-10-19T04:27:45;45.50;;;37.90;;
12776;SDS011;6452;41.572;23.732;2023-10-19T04:30:12;52.03;;;42.40;;
12776;SDS011;6452;41.572;23.732;2023-10-19T04:32:44;42.78;;;34.63;;
12776;SDS011;6452;41.572;23.732;2023-10-19T04:35:11;19.98;;;16.65;;
12776;SDS011;6452;41.572;23.732;2023-10-19T04:37:49;20.52;;;15.88;;
12776;SDS011;6452;41.572;23.732;2023-10-19T04:40:17;11.43;;;9.07;;
12776;SDS011;6452;41.572;23.732;2023-10-19T04:42:45;6.03;;;5.43;;
12776;SDS011;6452;41.572;23.732;2023-10-19T04:45:12;5.95;;;4.80;;
12776;SDS011;6452;41.572;23.732;2023-10-19T04:47:43;4.63;;;4.10;;
12776;SDS011;6452;41.572;23.732;2023-10-19T04:50:10;5.40;;;4.32;;
12776;SDS011;6452;41.572;23.732;2023-10-19T04:52:36;3.65;;;3.40;;
12776;SDS011;6452;41.572;23.732;2023-10-19T04:55:03;4.35;;;3.72;;
12776;SDS011;6452;41.572;23.732;2023-10-19T04:57:31;4.30;;;3.05;;
12776;SDS011;6452;41.572;23.732;2023-10-19T04:59:58;3.00;;;2.80;;
12776;SDS011;6452;41.572;23.732;2023-10-19T05:02:25;4.38;;;3.35;;
12776;SDS011;6452;41.572;23.732;2023-10-19T05:04:52;3.95;;;3.50;;
12776;SDS011;6452;41.572;23.732;2023-10-19T05:07:19;5.55;;;3.78;;
12776;SDS011;6452;41.572;23.732;2023-10-19T05:09:45;5.30;;;3.55;;
12776;SDS011;6452;41.572;23.732;2023-10-19T05:12:12;4.95;;;3.72;;
12776;SDS011;6452;41.572;23.732;2023-10-19T05:14:39;3.33;;;3.10;;
12776;SDS011;6452;41.572;23.732;2023-10-19T05:17:07;3.55;;;3.33;;
12776;SDS011;6452;41.572;23.732;2023-10-19T05:19:38;3.47;;;3.13;;
12776;SDS011;6452;41.572;23.732;2023-10-19T05:22:09;3.92;;;3.53;;
12776;SDS011;6452;41.572;23.732;2023-10-19T05:24:35;4.05;;;3.40;;
12776;SDS011;6452;41.572;23.732;2023-10-19T05:27:02;3.75;;;3.45;;
12776;SDS011;6452;41.572;23.732;2023-10-19T05:29:31;3.78;;;3.15;;
12776;SDS011;6452;41.572;23.732;2023-10-19T05:31:58;4.28;;;3.67;;
12776;SDS011;6452;41.572;23.732;2023-10-19T05:34:26;4.00;;;3.60;;
12776;SDS011;6452;41.572;23.732;2023-10-19T05:36:54;4.22;;;3.63;;
12776;SDS011;6452;41.572;23.732;2023-10-19T05:39:24;4.00;;;3.58;;
12776;SDS011;6452;41.572;23.732;2023-10-19T05:41:53;6.30;;;3.65;;
12776;SDS011;6452;41.572;23.732;2023-10-19T05:44:20;3.70;;;3.40;;
12776;SDS011;6452;41.572;23.732;2023-10-19T05:46:50;4.32;;;3.90;;
12776;SDS011;6452;41.572;23.732;2023-10-19T05:49:17;4.57;;;4.20;;
12776;SDS011;6452;41.572;23.732;2023-10-19T05:51:43;5.97;;;5.32;;
12776;SDS011;6452;41.572;23.732;2023-10-19T05:54:10;8.10;;;4.70;;
12776;SDS011;6452;41.572;23.732;2023-10-19T05:56:37;5.05;;;4.20;;
12776;SDS011;6452;41.572;23.732;2023-10-19T05:59:03;4.78;;;4.32;;
12776;SDS011;6452;41.572;23.732;2023-10-19T06:01:32;5.50;;;4.38;;
12776;SDS011;6452;41.572;23.732;2023-10-19T06:03:58;6.20;;;5.00;;
12776;SDS011;6452;41.572;23.732;2023-10-19T06:06:25;5.95;;;5.35;;
12776;SDS011;6452;41.572;23.732;2023-10-19T06:08:56;5.53;;;4.90;;
12776;SDS011;6452;41.572;23.732;2023-10-19T06:11:22;6.03;;;4.93;;
12776;SDS011;6452;41.572;23.732;2023-10-19T06:13:53;7.25;;;5.75;;
12776;SDS011;6452;41.572;23.732;2023-10-19T06:16:20;10.10;;;5.90;;
12776;SDS011;6452;41.572;23.732;2023-10-19T06:18:46;7.32;;;6.63;;
12776;SDS011;6452;41.572;23.732;2023-10-19T06:21:16;109.47;;;55.78;;
12776;SDS011;6452;41.572;23.732;2023-10-19T06:23:44;44.22;;;27.73;;
12776;SDS011;6452;41.572;23.732;2023-10-19T06:26:11;11.35;;;9.52;;
12776;SDS011;6452;41.572;23.732;2023-10-19T06:28:38;9.82;;;8.65;;
12776;SDS011;6452;41.572;23.732;2023-10-19T06:31:06;10.23;;;6.97;;
12776;SDS011;6452;41.572;23.732;2023-10-19T06:33:32;6.35;;;5.75;;
12776;SDS011;6452;41.572;23.732;2023-10-19T06:35:59;5.90;;;5.30;;
12776;SDS011;6452;41.572;23.732;2023-10-19T06:38:31;7.28;;;5.20;;
12776;SDS011;6452;41.572;23.732;2023-10-19T06:41:00;6.43;;;5.82;;
12776;SDS011;6452;41.572;23.732;2023-10-19T06:43:28;8.05;;;5.72;;
12776;SDS011;6452;41.572;23.732;2023-10-19T06:45:56;6.57;;;5.93;;
12776;SDS011;6452;41.572;23.732;2023-10-19T06:48:22;10.80;;;6.22;;
12776;SDS011;6452;41.572;23.732;2023-10-19T06:50:49;9.73;;;6.05;;
12776;SDS011;6452;41.572;23.732;2023-10-19T06:53:15;7.00;;;5.85;;
12776;SDS011;6452;41.572;23.732;2023-10-19T06:55:42;7.55;;;6.85;;
12776;SDS011;6452;41.572;23.732;2023-10-19T06:58:09;8.48;;;7.53;;
12776;SDS011;6452;41.572;23.732;2023-10-19T07:00:37;10.98;;;7.72;;
12776;SDS011;6452;41.572;23.732;2023-10-19T07:03:10;7.78;;;7.05;;
12776;SDS011;6452;41.572;23.732;2023-10-19T07:05:37;6.88;;;6.20;;
12776;SDS011;6452;41.572;23.732;2023-10-19T07:08:04;10.70;;;7.13;;
12776;SDS011;6452;41.572;23.732;2023-10-19T07:10:32;6.15;;;5.55;;
12776;SDS011;6452;41.572;23.732;2023-10-19T07:13:00;8.40;;;6.40;;
12776;SDS011;6452;41.572;23.732;2023-10-19T07:15:26;5.93;;;5.40;;
12776;SDS011;6452;41.572;23.732;2023-10-19T07:17:55;9.43;;;6.10;;
12776;SDS011;6452;41.572;23.732;2023-10-19T07:20:22;9.48;;;6.25;;
12776;SDS011;6452;41.572;23.732;2023-10-19T07:22:52;8.13;;;5.80;;
12776;SDS011;6452;41.572;23.732;2023-10-19T07:25:22;7.25;;;6.28;;
12776;SDS011;6452;41.572;23.732;2023-10-19T07:27:53;6.95;;;6.35;;
12776;SDS011;6452;41.572;23.732;2023-10-19T07:30:20;6.50;;;5.90;;
12776;SDS011;6452;41.572;23.732;2023-10-19T07:32:47;10.57;;;6.35;;
12776;SDS011;6452;41.572;23.732;2023-10-19T07:35:23;6.60;;;5.82;;
12776;SDS011;6452;41.572;23.732;2023-10-19T07:37:51;7.13;;;5.97;;
12776;SDS011;6452;41.572;23.732;2023-10-19T07:40:19;6.78;;;5.93;;
12776;SDS011;6452;41.572;23.732;2023-10-19T07:42:46;6.05;;;5.55;;
12776;SDS011;6452;41.572;23.732;2023-10-19T07:45:14;7.43;;;5.03;;
12776;SDS011;6452;41.572;23.732;2023-10-19T07:47:42;5.50;;;5.05;;
12776;SDS011;6452;41.572;23.732;2023-10-19T07:50:08;10.80;;;5.22;;
12776;SDS011;6452;41.572;23.732;2023-10-19T07:52:50;5.82;;;5.22;;
12776;SDS011;6452;41.572;23.732;2023-10-19T07:55:22;5.65;;;5.13;;
12776;SDS011;6452;41.572;23.732;2023-10-19T07:57:51;5.43;;;4.90;;
12776;SDS011;6452;41.572;23.732;2023-10-19T08:00:18;10.05;;;5.45;;
12776;SDS011;6452;41.572;23.732;2023-10-19T08:02:45;7.20;;;5.55;;
12776;SDS011;6452;41.572;23.732;2023-10-19T08:05:12;6.38;;;5.22;;
12776;SDS011;6452;41.572;23.732;2023-10-19T08:07:39;7.70;;;4.60;;
12776;SDS011;6452;41.572;23.732;2023-10-19T08:10:11;5.00;;;4.60;;
12776;SDS011;6452;41.572;23.732;2023-10-19T08:12:38;4.80;;;4.35;;
12776;SDS011;6452;41.572;23.732;2023-10-19T08:15:07;7.65;;;4.40;;
12776;SDS011;6452;41.572;23.732;2023-10-19T08:17:39;5.03;;;4.57;;
12776;SDS011;6452;41.572;23.732;2023-10-19T08:20:07;5.47;;;4.40;;
12776;SDS011;6452;41.572;23.732;2023-10-19T08:22:41;5.22;;;4.20;;
12776;SDS011;6452;41.572;23.732;2023-10-19T08:25:09;4.68;;;4.20;;
12776;SDS011;6452;41.572;23.732;2023-10-19T08:27:40;3.97;;;3.58;;
12776;SDS011;6452;41.572;23.732;2023-10-19T08:30:10;3.70;;;3.50;;
12776;SDS011;6452;41.572;23.732;2023-10-19T08:32:41;3.75;;;3.40;;
12776;SDS011;6452;41.572;23.732;2023-10-19T08:35:08;4.00;;;3.70;;
12776;SDS011;6452;41.572;23.732;2023-10-19T08:37:40;3.00;;;2.80;;
12776;SDS011;6452;41.572;23.732;2023-10-19T08:40:11;4.25;;;3.28;;
12776;SDS011;6452;41.572;23.732;2023-10-19T08:42:41;3.40;;;3.17;;
12776;SDS011;6452;41.572;23.732;2023-10-19T08:45:08;3.03;;;2.92;;
12776;SDS011;6452;41.572;23.732;2023-10-19T08:47:43;3.28;;;3.00;;
12776;SDS011;6452;41.572;23.732;2023-10-19T08:50:16;3.20;;;3.00;;
12776;SDS011;6452;41.572;23.732;2023-10-19T08:52:48;3.08;;;2.97;;
12776;SDS011;6452;41.572;23.732;2023-10-19T08:55:19;3.10;;;2.92;;
12776;SDS011;6452;41.572;23.732;2023-10-19T08:57:49;3.10;;;2.90;;
12776;SDS011;6452;41.572;23.732;2023-10-19T09:00:19;3.40;;;2.50;;
12776;SDS011;6452;41.572;23.732;2023-10-19T09:02:53;3.38;;;2.80;;
12776;SDS011;6452;41.572;23.732;2023-10-19T09:05:39;3.08;;;2.97;;
12776;SDS011;6452;41.572;23.732;2023-10-19T09:08:06;3.13;;;2.85;;
12776;SDS011;6452;41.572;23.732;2023-10-19T09:10:35;3.22;;;2.92;;
12776;SDS011;6452;41.572;23.732;2023-10-19T09:13:03;3.28;;;3.08;;
12776;SDS011;6452;41.572;23.732;2023-10-19T09:15:33;3.45;;;3.25;;
12776;SDS011;6452;41.572;23.732;2023-10-19T09:18:11;3.42;;;3.20;;
12776;SDS011;6452;41.572;23.732;2023-10-19T09:20:39;3.63;;;3.33;;
12776;SDS011;6452;41.572;23.732;2023-10-19T09:23:29;3.50;;;3.30;;
12776;SDS011;6452;41.572;23.732;2023-10-19T09:25:57;3.85;;;3.30;;
12776;SDS011;6452;41.572;23.732;2023-10-19T09:28:24;3.35;;;3.17;;
12776;SDS011;6452;41.572;23.732;2023-10-19T09:30:50;3.90;;;3.70;;
12776;SDS011;6452;41.572;23.732;2023-10-19T09:33:17;4.25;;;3.70;;
12776;SDS011;6452;41.572;23.732;2023-10-19T09:35:47;3.40;;;3.20;;
12776;SDS011;6452;41.572;23.732;2023-10-19T09:38:15;3.95;;;3.75;;
12776;SDS011;6452;41.572;23.732;2023-10-19T09:40:47;4.05;;;3.60;;
12776;SDS011;6452;41.572;23.732;2023-10-19T09:43:15;3.55;;;3.35;;
12776;SDS011;6452;41.572;23.732;2023-10-19T09:45:49;3.40;;;3.20;;
12776;SDS011;6452;41.572;23.732;2023-10-19T09:48:19;3.30;;;3.10;;
12776;SDS011;6452;41.572;23.732;2023-10-19T09:50:54;3.13;;;2.92;;
12776;SDS011;6452;41.572;23.732;2023-10-19T09:53:26;2.83;;;2.72;;
12776;SDS011;6452;41.572;23.732;2023-10-19T09:56:15;3.63;;;3.42;;
12776;SDS011;6452;41.572;23.732;2023-10-19T09:58:51;2.72;;;2.63;;
12776;SDS011;6452;41.572;23.732;2023-10-19T10:01:20;2.88;;;2.78;;
12776;SDS011;6452;41.572;23.732;2023-10-19T10:03:50;2.83;;;2.70;;
12776;SDS011;6452;41.572;23.732;2023-10-19T10:09:20;2.80;;;2.60;;
12776;SDS011;6452;41.572;23.732;2023-10-19T10:11:52;2.95;;;2.75;;
12776;SDS011;6452;41.572;23.732;2023-10-19T10:14:22;3.28;;;3.05;;
12776;SDS011;6452;41.572;23.732;2023-10-19T10:17:00;3.30;;;3.10;;
12776;SDS011;6452;41.572;23.732;2023-10-19T10:19:26;3.08;;;2.88;;
12776;SDS011;6452;41.572;23.732;2023-10-19T10:22:07;3.05;;;2.95;;
12776;SDS011;6452;41.572;23.732;2023-10-19T10:24:53;2.90;;;2.80;;
12776;SDS011;6452;41.572;23.732;2023-10-19T10:27:22;3.67;;;3.47;;
12776;SDS011;6452;41.572;23.732;2023-10-19T10:29:59;3.85;;;3.60;;
12776;SDS011;6452;41.572;23.732;2023-10-19T10:32:50;3.58;;;3.38;;
12776;SDS011;6452;41.572;23.732;2023-10-19T10:36:06;5.03;;;3.78;;
12776;SDS011;6452;41.572;23.732;2023-10-19T10:38:09;3.78;;;3.47;;
12776;SDS011;6452;41.572;23.732;2023-10-19T10:40:46;4.68;;;3.70;;
12776;SDS011;6452;41.572;23.732;2023-10-19T10:43:13;3.90;;;3.60;;
12776;SDS011;6452;41.572;23.732;2023-10-19T10:45:41;3.63;;;3.35;;
12776;SDS011;6452;41.572;23.732;2023-10-19T10:48:13;3.60;;;3.30;;
12776;SDS011;6452;41.572;23.732;2023-10-19T10:50:40;3.80;;;3.50;;
12776;SDS011;6452;41.572;23.732;2023-10-19T10:53:07;4.28;;;3.88;;
12776;SDS011;6452;41.572;23.732;2023-10-19T10:55:36;3.78;;;3.40;;
12776;SDS011;6452;41.572;23.732;2023-10-19T10:58:03;3.35;;;3.15;;
12776;SDS011;6452;41.572;23.732;2023-10-19T11:00:30;3.63;;;3.33;;
12776;SDS011;6452;41.572;23.732;2023-10-19T11:03:06;3.38;;;3.28;;
12776;SDS011;6452;41.572;23.732;2023-10-19T11:05:33;3.42;;;3.22;;
12776;SDS011;6452;41.572;23.732;2023-10-19T11:08:04;3.65;;;3.35;;
12776;SDS011;6452;41.572;23.732;2023-10-19T11:10:35;4.47;;;3.60;;
12776;SDS011;6452;41.572;23.732;2023-10-19T11:13:03;3.45;;;3.25;;
12776;SDS011;6452;41.572;23.732;2023-10-19T11:15:31;3.53;;;3.28;;
12776;SDS011;6452;41.572;23.732;2023-10-19T11:17:58;3.95;;;3.60;;
12776;SDS011;6452;41.572;23.732;2023-10-19T11:20:25;3.60;;;3.40;;
12776;SDS011;6452;41.572;23.732;2023-10-19T11:22:53;3.42;;;3.13;;
12776;SDS011;6452;41.572;23.732;2023-10-19T11:25:25;3.58;;;3.28;;
12776;SDS011;6452;41.572;23.732;2023-10-19T11:27:56;3.42;;;3.22;;
12776;SDS011;6452;41.572;23.732;2023-10-19T11:30:28;3.67;;;3.38;;
12776;SDS011;6452;41.572;23.732;2023-10-19T11:32:57;3.33;;;3.10;;
12776;SDS011;6452;41.572;23.732;2023-10-19T11:35:28;3.65;;;3.40;;
12776;SDS011;6452;41.572;23.732;2023-10-19T11:37:56;3.33;;;3.17;;
12776;SDS011;6452;41.572;23.732;2023-10-19T11:40:24;3.47;;;3.17;;
12776;SDS011;6452;41.572;23.732;2023-10-19T11:42:52;3.58;;;3.38;;
12776;SDS011;6452;41.572;23.732;2023-10-19T11:45:22;3.30;;;3.10;;
12776;SDS011;6452;41.572;23.732;2023-10-19T11:48:08;3.90;;;2.90;;
12776;SDS011;6452;41.572;23.732;2023-10-19T11:50:34;3.00;;;2.90;;
12776;SDS011;6452;41.572;23.732;2023-10-19T11:53:02;5.40;;;3.03;;
12776;SDS011;6452;41.572;23.732;2023-10-19T11:55:31;3.22;;;2.92;;
12776;SDS011;6452;41.572;23.732;2023-10-19T11:57:57;3.03;;;2.83;;
12776;SDS011;6452;41.572;23.732;2023-10-19T12:00:23;3.05;;;2.88;;
12776;SDS011;6452;41.572;23.732;2023-10-19T12:02:59;3.00;;;2.90;;
12776;SDS011;6452;41.572;23.732;2023-10-19T12:05:25;3.05;;;2.88;;
12776;SDS011;6452;41.572;23.732;2023-10-19T12:07:52;2.72;;;2.63;;
12776;SDS011;6452;41.572;23.732;2023-10-19T12:10:19;3.13;;;2.92;;
12776;SDS011;6452;41.572;23.732;2023-10-19T12:12:51;2.80;;;2.45;;
12776;SDS011;6452;41.572;23.732;2023-10-19T12:15:18;3.20;;;3.00;;
12776;SDS011;6452;41.572;23.732;2023-10-19T12:17:48;2.55;;;2.45;;
12776;SDS011;6452;41.572;23.732;2023-10-19T12:20:16;2.72;;;2.63;;
12776;SDS011;6452;41.572;23.732;2023-10-19T12:22:47;2.55;;;2.45;;
12776;SDS011;6452;41.572;23.732;2023-10-19T12:25:17;2.83;;;2.63;;
12776;SDS011;6452;41.572;23.732;2023-10-19T12:27:44;2.53;;;2.38;;
12776;SDS011;6452;41.572;23.732;2023-10-19T12:30:14;2.90;;;2.80;;
12776;SDS011;6452;41.572;23.732;2023-10-19T12:32:48;2.72;;;2.63;;
12776;SDS011;6452;41.572;23.732;2023-10-19T12:35:18;2.50;;;2.40;;
12776;SDS011;6452;41.572;23.732;2023-10-19T12:38:04;2.50;;;2.30;;
12776;SDS011;6452;41.572;23.732;2023-10-19T12:40:32;2.40;;;2.30;;
12776;SDS011;6452;41.572;23.732;2023-10-19T12:43:03;2.10;;;2.00;;
12776;SDS011;6452;41.572;23.732;2023-10-19T12:45:33;2.15;;;2.05;;
12776;SDS011;6452;41.572;23.732;2023-10-19T12:48:05;2.08;;;2.05;;
12776;SDS011;6452;41.572;23.732;2023-10-19T12:50:36;3.05;;;2.00;;
12776;SDS011;6452;41.572;23.732;2023-10-19T12:53:03;4.00;;;2.20;;
12776;SDS011;6452;41.572;23.732;2023-10-19T12:55:29;2.38;;;2.17;;
12776;SDS011;6452;41.572;23.732;2023-10-19T12:57:57;2.03;;;1.92;;
12776;SDS011;6452;41.572;23.732;2023-10-19T13:00:25;4.57;;;2.22;;
12776;SDS011;6452;41.572;23.732;2023-10-19T13:02:55;2.13;;;2.03;;
12776;SDS011;6452;41.572;23.732;2023-10-19T13:05:32;2.45;;;2.25;;
12776;SDS011;6452;41.572;23.732;2023-10-19T13:08:00;2.00;;;1.90;;
12776;SDS011;6452;41.572;23.732;2023-10-19T13:10:30;2.30;;;2.20;;
12776;SDS011;6452;41.572;23.732;2023-10-19T13:13:00;2.15;;;2.03;;
12776;SDS011;6452;41.572;23.732;2023-10-19T13:15:31;2.22;;;2.03;;
12776;SDS011;6452;41.572;23.732;2023-10-19T13:18:02;2.20;;;2.10;;
12776;SDS011;6452;41.572;23.732;2023-10-19T13:20:29;2.00;;;2.00;;
12776;SDS011;6452;41.572;23.732;2023-10-19T13:23:02;2.53;;;2.33;;
12776;SDS011;6452;41.572;23.732;2023-10-19T13:25:32;2.67;;;2.58;;
12776;SDS011;6452;41.572;23.732;2023-10-19T13:28:19;3.05;;;2.85;;
12776;SDS011;6452;41.572;23.732;2023-10-19T13:30:48;3.20;;;3.00;;
12776;SDS011;6452;41.572;23.732;2023-10-19T13:33:21;4.00;;;3.60;;
12776;SDS011;6452;41.572;23.732;2023-10-19T13:35:47;3.80;;;3.60;;
12776;SDS011;6452;41.572;23.732;2023-10-19T13:38:15;3.10;;;2.90;;
12776;SDS011;6452;41.572;23.732;2023-10-19T13:40:43;2.90;;;2.70;;
12776;SDS011;6452;41.572;23.732;2023-10-19T13:43:12;3.35;;;3.15;;
12776;SDS011;6452;41.572;23.732;2023-10-19T13:45:39;4.05;;;3.65;;
12776;SDS011;6452;41.572;23.732;2023-10-19T13:48:11;5.93;;;4.15;;
12776;SDS011;6452;41.572;23.732;2023-10-19T13:50:42;3.88;;;3.45;;
12776;SDS011;6452;41.572;23.732;2023-10-19T13:53:13;3.60;;;3.30;;
12776;SDS011;6452;41.572;23.732;2023-10-19T13:55:41;3.35;;;3.15;;
12776;SDS011;6452;41.572;23.732;2023-10-19T13:58:07;2.53;;;2.42;;
12776;SDS011;6452;41.572;23.732;2023-10-19T14:00:33;2.08;;;1.98;;
12776;SDS011;6452;41.572;23.732;2023-10-19T14:03:04;2.25;;;2.15;;
12776;SDS011;6452;41.572;23.732;2023-10-19T14:05:44;2.30;;;2.20;;
12776;SDS011;6452;41.572;23.732;2023-10-19T14:08:14;3.33;;;2.47;;
12776;SDS011;6452;41.572;23.732;2023-10-19T14:10:45;2.20;;;2.10;;
12776;SDS011;6452;41.572;23.732;2023-10-19T14:13:12;2.88;;;2.67;;
12776;SDS011;6452;41.572;23.732;2023-10-19T14:15:38;2.47;;;2.38;;
12776;SDS011;6452;41.572;23.732;2023-10-19T14:18:04;2.35;;;2.25;;
12776;SDS011;6452;41.572;23.732;2023-10-19T14:20:32;7.72;;;7.22;;
12776;SDS011;6452;41.572;23.732;2023-10-19T14:22:59;4.10;;;3.30;;
12776;SDS011;6452;41.572;23.732;2023-10-19T14:25:26;4.68;;;3.83;;
12776;SDS011;6452;41.572;23.732;2023-10-19T14:27:54;3.90;;;3.60;;
12776;SDS011;6452;41.572;23.732;2023-10-19T14:30:25;7.45;;;6.75;;
12776;SDS011;6452;41.572;23.732;2023-10-19T14:32:53;7.57;;;6.97;;
12776;SDS011;6452;41.572;23.732;2023-10-19T14:35:20;7.30;;;6.35;;
12776;SDS011;6452;41.572;23.732;2023-10-19T14:37:49;5.50;;;4.68;;
12776;SDS011;6452;41.572;23.732;2023-10-19T14:40:20;4.47;;;4.15;;
12776;SDS011;6452;41.572;23.732;2023-10-19T14:42:49;4.88;;;4.47;;
12776;SDS011;6452;41.572;23.732;2023-10-19T14:45:19;4.65;;;4.30;;
12776;SDS011;6452;41.572;23.732;2023-10-19T14:47:51;4.13;;;3.72;;
12776;SDS011;6452;41.572;23.732;2023-10-19T14:50:22;4.05;;;3.75;;
12776;SDS011;6452;41.572;23.732;2023-10-19T14:52:49;4.78;;;4.28;;
12776;SDS011;6452;41.572;23.732;2023-10-19T14:55:18;5.15;;;4.75;;
12776;SDS011;6452;41.572;23.732;2023-10-19T14:57:45;9.55;;;5.22;;
12776;SDS011;6452;41.572;23.732;2023-10-19T15:00:19;4.95;;;4.53;;
12776;SDS011;6452;41.572;23.732;2023-10-19T15:02:47;5.28;;;4.75;;
12776;SDS011;6452;41.572;23.732;2023-10-19T15:05:35;6.30;;;5.70;;
12776;SDS011;6452;41.572;23.732;2023-10-19T15:08:02;8.50;;;6.60;;
12776;SDS011;6452;41.572;23.732;2023-10-19T15:10:32;8.00;;;7.20;;
12776;SDS011;6452;41.572;23.732;2023-10-19T15:12:58;6.50;;;5.90;;